sensor_id;sensor_type;location;lat;lon;timestamp;P1;durP1;ratioP1;P2;durP2;ratioP2
8881;SDS011;4477;48.736;9.176;2022-07-06T00:02:19;5.07;;;2.30;;
8881;SDS011;4477;48.736;9.176;2022-07-06T00:04:46;3.40;;;2.30;;
8881;SDS011;4477;48.736;9.176;2022-07-06T00:07:13;3.07;;;2.13;;
8881;SDS011;4477;48.736;9.176;2022-07-06T00:09:40;3.50;;;2.23;;
8881;SDS011;4477;48.736;9.176;2022-07-06T00:12:09;4.37;;;2.30;;
8881;SDS011;4477;48.736;9.176;2022-07-06T00:14:36;4.80;;;2.40;;
8881;SDS011;4477;48.736;9.176;2022-07-06T00:17:03;3.57;;;2.27;;
8881;SDS011;4477;48.736;9.176;2022-07-06T00:19:30;3.97;;;2.20;;
8881;SDS011;4477;48.736;9.176;2022-07-06T00:21:57;3.77;;;2.40;;
8881;SDS011;4477;48.736;9.176;2022-07-06T00:24:24;2.67;;;2.30;;
8881;SDS011;4477;48.736;9.176;2022-07-06T00:26:51;3.00;;;2.50;;
8881;SDS011;4477;48.736;9.176;2022-07-06T00:29:19;2.50;;;2.13;;
8881;SDS011;4477;48.736;9.176;2022-07-06T00:31:46;2.87;;;2.47;;
8881;SDS011;4477;48.736;9.176;2022-07-06T00:34:13;2.97;;;2.40;;
8881;SDS011;4477;48.736;9.176;2022-07-06T00:36:40;3.57;;;2.60;;
8881;SDS011;4477;48.736;9.176;2022-07-06T00:39:07;3.07;;;2.47;;
8881;SDS011;4477;48.736;9.176;2022-07-06T00:41:34;2.60;;;2.40;;
8881;SDS011;4477;48.736;9.176;2022-07-06T00:44:04;3.10;;;2.40;;
8881;SDS011;4477;48.736;9.176;2022-07-06T00:46:35;4.73;;;2.50;;
8881;SDS011;4477;48.736;9.176;2022-07-06T00:49:02;2.60;;;2.40;;
8881;SDS011;4477;48.736;9.176;2022-07-06T00:51:30;4.67;;;2.80;;
8881;SDS011;4477;48.736;9.176;2022-07-06T00:53:58;3.87;;;2.40;;
8881;SDS011;4477;48.736;9.176;2022-07-06T00:56:28;3.30;;;2.63;;
8881;SDS011;4477;48.736;9.176;2022-07-06T00:58:55;3.37;;;3.00;;
8881;SDS011;4477;48.736;9.176;2022-07-06T01:01:23;3.90;;;2.97;;
8881;SDS011;4477;48.736;9.176;2022-07-06T01:03:51;4.90;;;2.27;;
8881;SDS011;4477;48.736;9.176;2022-07-06T01:06:18;4.57;;;2.70;;
8881;SDS011;4477;48.736;9.176;2022-07-06T01:08:45;3.20;;;2.37;;
8881;SDS011;4477;48.736;9.176;2022-07-06T01:11:12;2.90;;;2.70;;
8881;SDS011;4477;48.736;9.176;2022-07-06T01:13:39;3.10;;;2.70;;
8881;SDS011;4477;48.736;9.176;2022-07-06T01:16:07;3.47;;;3.00;;
8881;SDS011;4477;48.736;9.176;2022-07-06T01:18:34;3.93;;;3.50;;
8881;SDS011;4477;48.736;9.176;2022-07-06T01:21:07;4.43;;;3.23;;
8881;SDS011;4477;48.736;9.176;2022-07-06T01:23:38;3.53;;;3.10;;
8881;SDS011;4477;48.736;9.176;2022-07-06T01:26:09;5.63;;;2.80;;
8881;SDS011;4477;48.736;9.176;2022-07-06T01:28:37;3.00;;;2.80;;
8881;SDS011;4477;48.736;9.176;2022-07-06T01:31:04;2.67;;;2.47;;
8881;SDS011;4477;48.736;9.176;2022-07-06T01:33:31;3.67;;;2.60;;
8881;SDS011;4477;48.736;9.176;2022-07-06T01:35:58;3.87;;;3.07;;
8881;SDS011;4477;48.736;9.176;2022-07-06T01:38:27;3.33;;;2.83;;
8881;SDS011;4477;48.736;9.176;2022-07-06T01:40:53;4.07;;;3.40;;
8881;SDS011;4477;48.736;9.176;2022-07-06T01:43:20;6.73;;;3.70;;
8881;SDS011;4477;48.736;9.176;2022-07-06T01:45:47;4.03;;;3.63;;
8881;SDS011;4477;48.736;9.176;2022-07-06T01:48:14;4.27;;;3.87;;
8881;SDS011;4477;48.736;9.176;2022-07-06T01:50:41;3.83;;;3.47;;
8881;SDS011;4477;48.736;9.176;2022-07-06T01:53:08;3.57;;;3.20;;
8881;SDS011;4477;48.736;9.176;2022-07-06T01:55:37;3.70;;;3.33;;
8881;SDS011;4477;48.736;9.176;2022-07-06T01:58:04;3.60;;;3.10;;
8881;SDS011;4477;48.736;9.176;2022-07-06T02:00:31;6.07;;;3.37;;
8881;SDS011;4477;48.736;9.176;2022-07-06T02:02:57;5.23;;;3.90;;
8881;SDS011;4477;48.736;9.176;2022-07-06T02:05:24;3.67;;;3.30;;
8881;SDS011;4477;48.736;9.176;2022-07-06T02:07:51;6.93;;;3.20;;
8881;SDS011;4477;48.736;9.176;2022-07-06T02:10:18;3.80;;;3.13;;
8881;SDS011;4477;48.736;9.176;2022-07-06T02:12:47;3.53;;;3.07;;
8881;SDS011;4477;48.736;9.176;2022-07-06T02:15:15;7.23;;;3.30;;
8881;SDS011;4477;48.736;9.176;2022-07-06T02:17:42;5.73;;;3.43;;
8881;SDS011;4477;48.736;9.176;2022-07-06T02:20:09;3.67;;;3.37;;
8881;SDS011;4477;48.736;9.176;2022-07-06T02:22:36;3.90;;;3.23;;
8881;SDS011;4477;48.736;9.176;2022-07-06T02:25:04;3.60;;;3.30;;
8881;SDS011;4477;48.736;9.176;2022-07-06T02:27:31;3.30;;;3.00;;
8881;SDS011;4477;48.736;9.176;2022-07-06T02:30:00;4.00;;;3.13;;
8881;SDS011;4477;48.736;9.176;2022-07-06T02:32:27;5.30;;;3.30;;
8881;SDS011;4477;48.736;9.176;2022-07-06T02:34:54;4.07;;;3.10;;
8881;SDS011;4477;48.736;9.176;2022-07-06T02:37:21;4.40;;;3.30;;
8881;SDS011;4477;48.736;9.176;2022-07-06T02:39:48;4.57;;;2.73;;
8881;SDS011;4477;48.736;9.176;2022-07-06T02:42:15;7.43;;;3.20;;
8881;SDS011;4477;48.736;9.176;2022-07-06T02:44:41;4.63;;;3.23;;
8881;SDS011;4477;48.736;9.176;2022-07-06T02:47:10;5.40;;;3.97;;
8881;SDS011;4477;48.736;9.176;2022-07-06T02:49:37;4.87;;;3.50;;
8881;SDS011;4477;48.736;9.176;2022-07-06T02:52:03;4.37;;;3.60;;
8881;SDS011;4477;48.736;9.176;2022-07-06T02:54:30;6.03;;;3.93;;
8881;SDS011;4477;48.736;9.176;2022-07-06T02:56:57;5.73;;;3.57;;
8881;SDS011;4477;48.736;9.176;2022-07-06T02:59:24;5.67;;;4.00;;
8881;SDS011;4477;48.736;9.176;2022-07-06T03:01:51;5.43;;;3.90;;
8881;SDS011;4477;48.736;9.176;2022-07-06T03:04:19;5.83;;;3.13;;
8881;SDS011;4477;48.736;9.176;2022-07-06T03:06:46;3.20;;;3.00;;
8881;SDS011;4477;48.736;9.176;2022-07-06T03:09:13;3.77;;;3.13;;
8881;SDS011;4477;48.736;9.176;2022-07-06T03:11:40;4.60;;;3.20;;
8881;SDS011;4477;48.736;9.176;2022-07-06T03:14:07;5.83;;;3.47;;
8881;SDS011;4477;48.736;9.176;2022-07-06T03:16:34;8.03;;;3.67;;
8881;SDS011;4477;48.736;9.176;2022-07-06T03:19:01;5.03;;;3.50;;
8881;SDS011;4477;48.736;9.176;2022-07-06T03:21:29;4.57;;;3.70;;
8881;SDS011;4477;48.736;9.176;2022-07-06T03:23:56;4.17;;;3.60;;
8881;SDS011;4477;48.736;9.176;2022-07-06T03:26:23;3.90;;;3.40;;
8881;SDS011;4477;48.736;9.176;2022-07-06T03:28:50;4.80;;;3.77;;
8881;SDS011;4477;48.736;9.176;2022-07-06T03:31:17;4.90;;;3.50;;
8881;SDS011;4477;48.736;9.176;2022-07-06T03:33:44;4.17;;;3.50;;
8881;SDS011;4477;48.736;9.176;2022-07-06T03:36:11;4.60;;;3.97;;
8881;SDS011;4477;48.736;9.176;2022-07-06T03:38:39;4.10;;;3.70;;
8881;SDS011;4477;48.736;9.176;2022-07-06T03:41:06;7.80;;;4.40;;
8881;SDS011;4477;48.736;9.176;2022-07-06T03:43:33;6.47;;;4.07;;
8881;SDS011;4477;48.736;9.176;2022-07-06T03:46:00;5.07;;;4.23;;
8881;SDS011;4477;48.736;9.176;2022-07-06T03:48:27;4.50;;;3.93;;
8881;SDS011;4477;48.736;9.176;2022-07-06T03:50:54;6.23;;;4.20;;
8881;SDS011;4477;48.736;9.176;2022-07-06T03:53:21;4.40;;;4.10;;
8881;SDS011;4477;48.736;9.176;2022-07-06T03:55:49;5.50;;;3.80;;
8881;SDS011;4477;48.736;9.176;2022-07-06T03:58:30;5.33;;;3.67;;
8881;SDS011;4477;48.736;9.176;2022-07-06T04:00:57;4.83;;;3.37;;
8881;SDS011;4477;48.736;9.176;2022-07-06T04:03:24;4.57;;;4.03;;
8881;SDS011;4477;48.736;9.176;2022-07-06T04:05:51;5.67;;;4.13;;
8881;SDS011;4477;48.736;9.176;2022-07-06T04:08:18;5.23;;;4.10;;
8881;SDS011;4477;48.736;9.176;2022-07-06T04:10:45;5.20;;;3.83;;
8881;SDS011;4477;48.736;9.176;2022-07-06T04:13:14;4.50;;;4.10;;
8881;SDS011;4477;48.736;9.176;2022-07-06T04:15:40;6.03;;;3.63;;
8881;SDS011;4477;48.736;9.176;2022-07-06T04:18:07;4.87;;;3.60;;
8881;SDS011;4477;48.736;9.176;2022-07-06T04:20:34;4.10;;;3.70;;
8881;SDS011;4477;48.736;9.176;2022-07-06T04:23:01;4.50;;;3.97;;
8881;SDS011;4477;48.736;9.176;2022-07-06T04:25:28;4.40;;;3.67;;
8881;SDS011;4477;48.736;9.176;2022-07-06T04:27:55;4.23;;;3.83;;
8881;SDS011;4477;48.736;9.176;2022-07-06T04:30:24;4.60;;;3.60;;
8881;SDS011;4477;48.736;9.176;2022-07-06T04:32:51;4.23;;;3.80;;
8881;SDS011;4477;48.736;9.176;2022-07-06T04:35:17;4.23;;;3.70;;
8881;SDS011;4477;48.736;9.176;2022-07-06T04:37:45;4.23;;;3.77;;
8881;SDS011;4477;48.736;9.176;2022-07-06T04:40:12;5.43;;;3.90;;
8881;SDS011;4477;48.736;9.176;2022-07-06T04:42:39;3.97;;;3.43;;
8881;SDS011;4477;48.736;9.176;2022-07-06T04:45:07;5.87;;;3.40;;
8881;SDS011;4477;48.736;9.176;2022-07-06T04:47:36;4.00;;;3.50;;
8881;SDS011;4477;48.736;9.176;2022-07-06T04:50:04;3.83;;;3.43;;
8881;SDS011;4477;48.736;9.176;2022-07-06T04:52:31;5.03;;;3.50;;
8881;SDS011;4477;48.736;9.176;2022-07-06T04:54:58;3.97;;;3.30;;
8881;SDS011;4477;48.736;9.176;2022-07-06T04:57:25;4.67;;;3.10;;
8881;SDS011;4477;48.736;9.176;2022-07-06T04:59:54;5.33;;;3.13;;
8881;SDS011;4477;48.736;9.176;2022-07-06T05:02:21;3.77;;;2.90;;
8881;SDS011;4477;48.736;9.176;2022-07-06T05:04:50;5.03;;;3.13;;
8881;SDS011;4477;48.736;9.176;2022-07-06T05:07:17;3.93;;;2.80;;
8881;SDS011;4477;48.736;9.176;2022-07-06T05:09:44;5.17;;;2.97;;
8881;SDS011;4477;48.736;9.176;2022-07-06T05:12:11;4.90;;;2.60;;
8881;SDS011;4477;48.736;9.176;2022-07-06T05:14:38;5.70;;;2.90;;
8881;SDS011;4477;48.736;9.176;2022-07-06T05:17:05;6.80;;;2.73;;
8881;SDS011;4477;48.736;9.176;2022-07-06T05:19:31;4.53;;;2.70;;
8881;SDS011;4477;48.736;9.176;2022-07-06T05:22:01;5.13;;;2.70;;
8881;SDS011;4477;48.736;9.176;2022-07-06T05:24:28;2.97;;;2.53;;
8881;SDS011;4477;48.736;9.176;2022-07-06T05:26:55;4.07;;;2.73;;
8881;SDS011;4477;48.736;9.176;2022-07-06T05:29:22;5.03;;;2.83;;
8881;SDS011;4477;48.736;9.176;2022-07-06T05:31:49;5.33;;;3.03;;
8881;SDS011;4477;48.736;9.176;2022-07-06T05:34:16;3.07;;;2.60;;
8881;SDS011;4477;48.736;9.176;2022-07-06T05:36:43;4.07;;;2.87;;
8881;SDS011;4477;48.736;9.176;2022-07-06T05:39:13;2.83;;;2.43;;
8881;SDS011;4477;48.736;9.176;2022-07-06T05:41:44;6.67;;;2.80;;
8881;SDS011;4477;48.736;9.176;2022-07-06T05:44:11;3.10;;;2.80;;
8881;SDS011;4477;48.736;9.176;2022-07-06T05:46:38;3.83;;;2.47;;
8881;SDS011;4477;48.736;9.176;2022-07-06T05:49:05;2.40;;;2.20;;
8881;SDS011;4477;48.736;9.176;2022-07-06T05:51:49;3.03;;;2.73;;
8881;SDS011;4477;48.736;9.176;2022-07-06T05:54:17;6.10;;;2.80;;
8881;SDS011;4477;48.736;9.176;2022-07-06T05:56:44;5.83;;;2.93;;
8881;SDS011;4477;48.736;9.176;2022-07-06T05:59:11;5.37;;;2.93;;
8881;SDS011;4477;48.736;9.176;2022-07-06T06:01:38;5.50;;;2.70;;
8881;SDS011;4477;48.736;9.176;2022-07-06T06:04:05;3.83;;;2.77;;
8881;SDS011;4477;48.736;9.176;2022-07-06T06:06:32;4.43;;;2.40;;
8881;SDS011;4477;48.736;9.176;2022-07-06T06:08:59;3.50;;;2.73;;
8881;SDS011;4477;48.736;9.176;2022-07-06T06:11:27;5.50;;;2.57;;
8881;SDS011;4477;48.736;9.176;2022-07-06T06:13:54;4.77;;;2.80;;
8881;SDS011;4477;48.736;9.176;2022-07-06T06:16:21;3.67;;;2.60;;
8881;SDS011;4477;48.736;9.176;2022-07-06T06:18:48;4.17;;;2.60;;
8881;SDS011;4477;48.736;9.176;2022-07-06T06:21:15;2.87;;;2.57;;
8881;SDS011;4477;48.736;9.176;2022-07-06T06:23:42;3.93;;;2.53;;
8881;SDS011;4477;48.736;9.176;2022-07-06T06:26:09;6.43;;;2.73;;
8881;SDS011;4477;48.736;9.176;2022-07-06T06:28:37;3.40;;;2.30;;
8881;SDS011;4477;48.736;9.176;2022-07-06T06:31:06;7.83;;;3.03;;
8881;SDS011;4477;48.736;9.176;2022-07-06T06:33:33;5.53;;;2.70;;
8881;SDS011;4477;48.736;9.176;2022-07-06T06:36:00;4.77;;;2.30;;
8881;SDS011;4477;48.736;9.176;2022-07-06T06:38:27;5.43;;;3.03;;
8881;SDS011;4477;48.736;9.176;2022-07-06T06:40:54;2.60;;;2.40;;
8881;SDS011;4477;48.736;9.176;2022-07-06T06:43:22;5.20;;;2.60;;
8881;SDS011;4477;48.736;9.176;2022-07-06T06:45:51;3.13;;;2.47;;
8881;SDS011;4477;48.736;9.176;2022-07-06T06:48:18;4.67;;;2.80;;
8881;SDS011;4477;48.736;9.176;2022-07-06T06:50:45;3.63;;;2.90;;
8881;SDS011;4477;48.736;9.176;2022-07-06T06:53:12;3.80;;;2.50;;
8881;SDS011;4477;48.736;9.176;2022-07-06T06:55:39;4.60;;;2.63;;
8881;SDS011;4477;48.736;9.176;2022-07-06T06:58:06;4.73;;;2.67;;
8881;SDS011;4477;48.736;9.176;2022-07-06T07:00:33;4.90;;;2.67;;
8881;SDS011;4477;48.736;9.176;2022-07-06T07:03:02;4.53;;;3.10;;
8881;SDS011;4477;48.736;9.176;2022-07-06T07:05:28;4.47;;;2.67;;
8881;SDS011;4477;48.736;9.176;2022-07-06T07:07:55;4.87;;;2.43;;
8881;SDS011;4477;48.736;9.176;2022-07-06T07:10:24;4.60;;;2.57;;
8881;SDS011;4477;48.736;9.176;2022-07-06T07:12:51;4.70;;;2.85;;
8881;SDS011;4477;48.736;9.176;2022-07-06T07:15:18;3.65;;;2.30;;
8881;SDS011;4477;48.736;9.176;2022-07-06T07:17:45;3.25;;;2.92;;
8881;SDS011;4477;48.736;9.176;2022-07-06T07:20:13;2.92;;;2.33;;
8881;SDS011;4477;48.736;9.176;2022-07-06T07:22:40;5.88;;;2.40;;
8881;SDS011;4477;48.736;9.176;2022-07-06T07:25:07;3.47;;;2.13;;
8881;SDS011;4477;48.736;9.176;2022-07-06T07:27:34;2.50;;;2.30;;
8881;SDS011;4477;48.736;9.176;2022-07-06T07:30:02;5.18;;;2.35;;
8881;SDS011;4477;48.736;9.176;2022-07-06T07:32:30;4.32;;;2.67;;
8881;SDS011;4477;48.736;9.176;2022-07-06T07:34:57;2.53;;;2.33;;
8881;SDS011;4477;48.736;9.176;2022-07-06T07:37:25;2.92;;;2.03;;
8881;SDS011;4477;48.736;9.176;2022-07-06T07:39:52;4.88;;;2.70;;
8881;SDS011;4477;48.736;9.176;2022-07-06T07:42:19;4.13;;;2.10;;
8881;SDS011;4477;48.736;9.176;2022-07-06T07:44:46;4.68;;;2.78;;
8881;SDS011;4477;48.736;9.176;2022-07-06T07:47:12;3.40;;;2.30;;
8881;SDS011;4477;48.736;9.176;2022-07-06T07:49:39;4.68;;;2.17;;
8881;SDS011;4477;48.736;9.176;2022-07-06T07:52:06;2.63;;;2.25;;
8881;SDS011;4477;48.736;9.176;2022-07-06T07:54:35;3.72;;;2.45;;
8881;SDS011;4477;48.736;9.176;2022-07-06T07:57:02;2.60;;;1.80;;
8881;SDS011;4477;48.736;9.176;2022-07-06T07:59:30;4.18;;;2.20;;
8881;SDS011;4477;48.736;9.176;2022-07-06T08:01:56;3.20;;;2.22;;
8881;SDS011;4477;48.736;9.176;2022-07-06T08:04:23;2.20;;;2.00;;
8881;SDS011;4477;48.736;9.176;2022-07-06T08:06:50;4.43;;;1.77;;
8881;SDS011;4477;48.736;9.176;2022-07-06T08:09:17;5.63;;;2.85;;
8881;SDS011;4477;48.736;9.176;2022-07-06T08:11:45;3.78;;;2.20;;
8881;SDS011;4477;48.736;9.176;2022-07-06T08:14:12;4.45;;;2.20;;
8881;SDS011;4477;48.736;9.176;2022-07-06T08:16:39;6.18;;;2.38;;
8881;SDS011;4477;48.736;9.176;2022-07-06T08:19:07;4.43;;;2.67;;
8881;SDS011;4477;48.736;9.176;2022-07-06T08:21:34;6.07;;;2.58;;
8881;SDS011;4477;48.736;9.176;2022-07-06T08:24:01;4.35;;;2.70;;
8881;SDS011;4477;48.736;9.176;2022-07-06T08:26:28;2.75;;;2.22;;
8881;SDS011;4477;48.736;9.176;2022-07-06T08:28:57;3.00;;;2.03;;
8881;SDS011;4477;48.736;9.176;2022-07-06T08:31:24;4.00;;;2.58;;
8881;SDS011;4477;48.736;9.176;2022-07-06T08:33:52;5.35;;;2.53;;
8881;SDS011;4477;48.736;9.176;2022-07-06T08:36:19;7.03;;;2.40;;
8881;SDS011;4477;48.736;9.176;2022-07-06T08:38:46;4.53;;;2.45;;
8881;SDS011;4477;48.736;9.176;2022-07-06T08:41:14;7.07;;;2.58;;
8881;SDS011;4477;48.736;9.176;2022-07-06T08:43:42;4.80;;;2.33;;
8881;SDS011;4477;48.736;9.176;2022-07-06T08:46:10;4.35;;;2.10;;
8881;SDS011;4477;48.736;9.176;2022-07-06T08:48:40;6.20;;;2.53;;
8881;SDS011;4477;48.736;9.176;2022-07-06T08:51:07;2.50;;;2.10;;
8881;SDS011;4477;48.736;9.176;2022-07-06T08:53:34;4.18;;;2.20;;
8881;SDS011;4477;48.736;9.176;2022-07-06T08:56:01;3.92;;;2.58;;
8881;SDS011;4477;48.736;9.176;2022-07-06T08:58:28;4.22;;;2.50;;
8881;SDS011;4477;48.736;9.176;2022-07-06T09:00:57;3.67;;;2.60;;
8881;SDS011;4477;48.736;9.176;2022-07-06T09:03:25;5.45;;;2.60;;
8881;SDS011;4477;48.736;9.176;2022-07-06T09:05:53;5.40;;;2.80;;
8881;SDS011;4477;48.736;9.176;2022-07-06T09:08:27;3.13;;;2.20;;
8881;SDS011;4477;48.736;9.176;2022-07-06T09:10:57;5.30;;;2.40;;
8881;SDS011;4477;48.736;9.176;2022-07-06T09:13:24;4.22;;;2.30;;
8881;SDS011;4477;48.736;9.176;2022-07-06T09:15:51;3.47;;;2.20;;
8881;SDS011;4477;48.736;9.176;2022-07-06T09:18:18;6.30;;;2.67;;
8881;SDS011;4477;48.736;9.176;2022-07-06T09:20:48;3.35;;;2.40;;
8881;SDS011;4477;48.736;9.176;2022-07-06T09:23:16;3.70;;;2.67;;
8881;SDS011;4477;48.736;9.176;2022-07-06T09:25:43;3.33;;;3.00;;
8881;SDS011;4477;48.736;9.176;2022-07-06T09:28:15;2.85;;;2.53;;
8881;SDS011;4477;48.736;9.176;2022-07-06T09:30:42;5.53;;;2.55;;
8881;SDS011;4477;48.736;9.176;2022-07-06T09:33:09;6.13;;;3.13;;
8881;SDS011;4477;48.736;9.176;2022-07-06T09:35:38;4.00;;;2.80;;
8881;SDS011;4477;48.736;9.176;2022-07-06T09:38:08;3.72;;;2.45;;
8881;SDS011;4477;48.736;9.176;2022-07-06T09:40:36;5.85;;;2.55;;
8881;SDS011;4477;48.736;9.176;2022-07-06T09:43:08;3.40;;;2.58;;
8881;SDS011;4477;48.736;9.176;2022-07-06T09:45:37;5.20;;;2.58;;
8881;SDS011;4477;48.736;9.176;2022-07-06T09:48:05;8.63;;;2.58;;
8881;SDS011;4477;48.736;9.176;2022-07-06T09:50:43;5.35;;;2.50;;
8881;SDS011;4477;48.736;9.176;2022-07-06T09:53:12;7.00;;;2.60;;
8881;SDS011;4477;48.736;9.176;2022-07-06T09:55:42;6.43;;;2.70;;
8881;SDS011;4477;48.736;9.176;2022-07-06T09:58:11;7.13;;;3.00;;
8881;SDS011;4477;48.736;9.176;2022-07-06T10:00:38;5.72;;;2.40;;
8881;SDS011;4477;48.736;9.176;2022-07-06T10:03:05;4.75;;;3.00;;
8881;SDS011;4477;48.736;9.176;2022-07-06T10:05:33;5.75;;;3.30;;
8881;SDS011;4477;48.736;9.176;2022-07-06T10:08:03;7.63;;;2.80;;
8881;SDS011;4477;48.736;9.176;2022-07-06T10:10:35;6.93;;;2.90;;
8881;SDS011;4477;48.736;9.176;2022-07-06T10:13:03;4.95;;;2.70;;
8881;SDS011;4477;48.736;9.176;2022-07-06T10:15:32;5.45;;;2.72;;
8881;SDS011;4477;48.736;9.176;2022-07-06T10:18:00;4.38;;;2.72;;
8881;SDS011;4477;48.736;9.176;2022-07-06T10:20:29;7.80;;;2.63;;
8881;SDS011;4477;48.736;9.176;2022-07-06T10:22:58;6.03;;;2.33;;
8881;SDS011;4477;48.736;9.176;2022-07-06T10:25:26;2.88;;;2.53;;
8881;SDS011;4477;48.736;9.176;2022-07-06T10:27:55;4.32;;;2.42;;
8881;SDS011;4477;48.736;9.176;2022-07-06T10:30:22;8.43;;;2.67;;
8881;SDS011;4477;48.736;9.176;2022-07-06T10:32:51;4.30;;;2.42;;
8881;SDS011;4477;48.736;9.176;2022-07-06T10:35:20;4.15;;;2.10;;
8881;SDS011;4477;48.736;9.176;2022-07-06T10:38:02;4.38;;;2.92;;
8881;SDS011;4477;48.736;9.176;2022-07-06T10:40:34;4.20;;;2.17;;
8881;SDS011;4477;48.736;9.176;2022-07-06T10:43:21;4.00;;;2.90;;
8881;SDS011;4477;48.736;9.176;2022-07-06T10:45:51;4.70;;;2.40;;
8881;SDS011;4477;48.736;9.176;2022-07-06T10:48:19;5.28;;;2.40;;
8881;SDS011;4477;48.736;9.176;2022-07-06T10:50:48;4.82;;;2.50;;
8881;SDS011;4477;48.736;9.176;2022-07-06T10:53:16;3.80;;;2.80;;
8881;SDS011;4477;48.736;9.176;2022-07-06T10:55:47;5.28;;;2.45;;
8881;SDS011;4477;48.736;9.176;2022-07-06T10:58:38;7.32;;;2.65;;
8881;SDS011;4477;48.736;9.176;2022-07-06T11:01:07;3.75;;;2.67;;
8881;SDS011;4477;48.736;9.176;2022-07-06T11:03:38;7.05;;;2.83;;
8881;SDS011;4477;48.736;9.176;2022-07-06T11:06:07;5.18;;;2.63;;
8881;SDS011;4477;48.736;9.176;2022-07-06T11:08:47;5.35;;;2.80;;
8881;SDS011;4477;48.736;9.176;2022-07-06T11:11:18;3.75;;;2.60;;
8881;SDS011;4477;48.736;9.176;2022-07-06T11:13:50;5.43;;;2.97;;
8881;SDS011;4477;48.736;9.176;2022-07-06T11:16:19;3.55;;;2.42;;
8881;SDS011;4477;48.736;9.176;2022-07-06T11:18:48;5.35;;;2.42;;
8881;SDS011;4477;48.736;9.176;2022-07-06T11:21:31;4.70;;;3.25;;
8881;SDS011;4477;48.736;9.176;2022-07-06T11:23:59;5.78;;;2.63;;
8881;SDS011;4477;48.736;9.176;2022-07-06T11:26:27;5.45;;;2.45;;
8881;SDS011;4477;48.736;9.176;2022-07-06T11:28:55;7.65;;;2.83;;
8881;SDS011;4477;48.736;9.176;2022-07-06T11:31:25;5.60;;;2.80;;
8881;SDS011;4477;48.736;9.176;2022-07-06T11:33:52;6.63;;;3.15;;
8881;SDS011;4477;48.736;9.176;2022-07-06T11:36:19;4.45;;;3.10;;
8881;SDS011;4477;48.736;9.176;2022-07-06T11:38:49;4.65;;;2.60;;
8881;SDS011;4477;48.736;9.176;2022-07-06T11:41:17;5.00;;;2.40;;
8881;SDS011;4477;48.736;9.176;2022-07-06T11:43:44;5.82;;;2.60;;
8881;SDS011;4477;48.736;9.176;2022-07-06T11:46:26;4.72;;;2.90;;
8881;SDS011;4477;48.736;9.176;2022-07-06T11:48:55;6.45;;;2.90;;
8881;SDS011;4477;48.736;9.176;2022-07-06T11:51:23;5.18;;;2.92;;
8881;SDS011;4477;48.736;9.176;2022-07-06T11:53:51;5.25;;;3.03;;
8881;SDS011;4477;48.736;9.176;2022-07-06T11:56:24;4.40;;;2.42;;
8881;SDS011;4477;48.736;9.176;2022-07-06T11:58:52;5.20;;;2.88;;
8881;SDS011;4477;48.736;9.176;2022-07-06T12:01:20;5.20;;;2.50;;
8881;SDS011;4477;48.736;9.176;2022-07-06T12:03:50;4.45;;;2.90;;
8881;SDS011;4477;48.736;9.176;2022-07-06T12:06:18;6.07;;;3.33;;
8881;SDS011;4477;48.736;9.176;2022-07-06T12:08:46;8.05;;;3.50;;
8881;SDS011;4477;48.736;9.176;2022-07-06T12:11:21;6.78;;;3.25;;
8881;SDS011;4477;48.736;9.176;2022-07-06T12:13:49;6.75;;;3.72;;
8881;SDS011;4477;48.736;9.176;2022-07-06T12:16:17;5.05;;;3.10;;
8881;SDS011;4477;48.736;9.176;2022-07-06T12:18:45;7.85;;;3.00;;
8881;SDS011;4477;48.736;9.176;2022-07-06T12:21:16;5.22;;;3.42;;
8881;SDS011;4477;48.736;9.176;2022-07-06T12:23:46;5.97;;;3.05;;
8881;SDS011;4477;48.736;9.176;2022-07-06T12:26:14;7.45;;;3.55;;
8881;SDS011;4477;48.736;9.176;2022-07-06T12:28:42;6.60;;;3.67;;
8881;SDS011;4477;48.736;9.176;2022-07-06T12:31:09;3.78;;;3.40;;
8881;SDS011;4477;48.736;9.176;2022-07-06T12:33:37;4.53;;;2.88;;
8881;SDS011;4477;48.736;9.176;2022-07-06T12:36:11;4.88;;;3.25;;
8881;SDS011;4477;48.736;9.176;2022-07-06T12:38:45;5.55;;;3.53;;
8881;SDS011;4477;48.736;9.176;2022-07-06T12:41:26;3.85;;;2.97;;
8881;SDS011;4477;48.736;9.176;2022-07-06T12:44:02;5.32;;;3.42;;
8881;SDS011;4477;48.736;9.176;2022-07-06T12:46:31;6.55;;;3.25;;
8881;SDS011;4477;48.736;9.176;2022-07-06T12:49:00;5.55;;;3.33;;
8881;SDS011;4477;48.736;9.176;2022-07-06T12:51:47;5.30;;;3.22;;
8881;SDS011;4477;48.736;9.176;2022-07-06T12:54:20;8.60;;;3.50;;
8881;SDS011;4477;48.736;9.176;2022-07-06T12:59:43;4.53;;;3.22;;
8881;SDS011;4477;48.736;9.176;2022-07-06T13:02:18;5.63;;;3.13;;
8881;SDS011;4477;48.736;9.176;2022-07-06T13:04:54;5.50;;;3.22;;
8881;SDS011;4477;48.736;9.176;2022-07-06T13:07:23;4.25;;;2.30;;
8881;SDS011;4477;48.736;9.176;2022-07-06T13:09:51;6.80;;;3.30;;
8881;SDS011;4477;48.736;9.176;2022-07-06T13:12:19;6.25;;;2.47;;
8881;SDS011;4477;48.736;9.176;2022-07-06T13:14:48;4.68;;;2.50;;
8881;SDS011;4477;48.736;9.176;2022-07-06T13:17:16;4.43;;;2.00;;
8881;SDS011;4477;48.736;9.176;2022-07-06T13:19:43;3.38;;;2.28;;
8881;SDS011;4477;48.736;9.176;2022-07-06T13:22:10;3.63;;;2.22;;
8881;SDS011;4477;48.736;9.176;2022-07-06T13:24:37;4.57;;;2.30;;
8881;SDS011;4477;48.736;9.176;2022-07-06T13:27:06;4.82;;;2.38;;
8881;SDS011;4477;48.736;9.176;2022-07-06T13:29:33;4.82;;;2.00;;
8881;SDS011;4477;48.736;9.176;2022-07-06T13:32:00;9.43;;;2.35;;
8881;SDS011;4477;48.736;9.176;2022-07-06T13:34:27;5.45;;;2.30;;
8881;SDS011;4477;48.736;9.176;2022-07-06T13:36:54;4.28;;;2.33;;
8881;SDS011;4477;48.736;9.176;2022-07-06T13:39:22;4.45;;;2.00;;
8881;SDS011;4477;48.736;9.176;2022-07-06T13:41:49;7.20;;;2.20;;
8881;SDS011;4477;48.736;9.176;2022-07-06T13:44:18;5.22;;;2.00;;
8881;SDS011;4477;48.736;9.176;2022-07-06T13:46:45;3.13;;;1.63;;
8881;SDS011;4477;48.736;9.176;2022-07-06T13:49:13;3.45;;;1.80;;
8881;SDS011;4477;48.736;9.176;2022-07-06T13:51:40;3.40;;;1.90;;
8881;SDS011;4477;48.736;9.176;2022-07-06T13:54:07;5.05;;;1.80;;
8881;SDS011;4477;48.736;9.176;2022-07-06T13:56:43;5.53;;;1.90;;
8881;SDS011;4477;48.736;9.176;2022-07-06T13:59:10;3.53;;;2.10;;
8881;SDS011;4477;48.736;9.176;2022-07-06T14:01:39;3.55;;;2.30;;
8881;SDS011;4477;48.736;9.176;2022-07-06T14:04:06;2.58;;;2.05;;
8881;SDS011;4477;48.736;9.176;2022-07-06T14:06:33;3.80;;;2.22;;
8881;SDS011;4477;48.736;9.176;2022-07-06T14:09:00;5.50;;;2.70;;
8881;SDS011;4477;48.736;9.176;2022-07-06T14:11:27;4.60;;;2.35;;
8881;SDS011;4477;48.736;9.176;2022-07-06T14:13:54;3.92;;;2.40;;
8881;SDS011;4477;48.736;9.176;2022-07-06T14:16:22;4.05;;;1.95;;
8881;SDS011;4477;48.736;9.176;2022-07-06T14:18:50;4.28;;;1.92;;
8881;SDS011;4477;48.736;9.176;2022-07-06T14:21:18;5.40;;;2.05;;
8881;SDS011;4477;48.736;9.176;2022-07-06T14:23:45;5.07;;;2.60;;
8881;SDS011;4477;48.736;9.176;2022-07-06T14:26:13;5.47;;;2.17;;
8881;SDS011;4477;48.736;9.176;2022-07-06T14:28:40;3.33;;;1.85;;
8881;SDS011;4477;48.736;9.176;2022-07-06T14:31:09;3.33;;;1.70;;
8881;SDS011;4477;48.736;9.176;2022-07-06T14:33:37;2.53;;;1.80;;
8881;SDS011;4477;48.736;9.176;2022-07-06T14:36:05;5.38;;;1.55;;
8881;SDS011;4477;48.736;9.176;2022-07-06T14:38:33;4.25;;;1.90;;
8881;SDS011;4477;48.736;9.176;2022-07-06T14:41:00;2.65;;;1.60;;
8881;SDS011;4477;48.736;9.176;2022-07-06T14:43:27;4.65;;;1.73;;
8881;SDS011;4477;48.736;9.176;2022-07-06T14:45:54;4.07;;;1.73;;
8881;SDS011;4477;48.736;9.176;2022-07-06T14:48:21;4.47;;;1.92;;
8881;SDS011;4477;48.736;9.176;2022-07-06T14:50:48;3.15;;;1.80;;
8881;SDS011;4477;48.736;9.176;2022-07-06T14:53:18;3.17;;;1.45;;
8881;SDS011;4477;48.736;9.176;2022-07-06T14:55:45;3.17;;;1.60;;
8881;SDS011;4477;48.736;9.176;2022-07-06T14:58:14;3.10;;;1.70;;
8881;SDS011;4477;48.736;9.176;2022-07-06T15:00:42;2.22;;;1.50;;
8881;SDS011;4477;48.736;9.176;2022-07-06T15:03:10;5.13;;;1.70;;
8881;SDS011;4477;48.736;9.176;2022-07-06T15:05:36;1.98;;;1.40;;
8881;SDS011;4477;48.736;9.176;2022-07-06T15:08:04;4.80;;;1.80;;
8881;SDS011;4477;48.736;9.176;2022-07-06T15:10:33;4.93;;;1.30;;
8881;SDS011;4477;48.736;9.176;2022-07-06T15:13:00;4.13;;;1.52;;
8881;SDS011;4477;48.736;9.176;2022-07-06T15:15:27;5.30;;;1.77;;
8881;SDS011;4477;48.736;9.176;2022-07-06T15:17:54;3.72;;;1.52;;
8881;SDS011;4477;48.736;9.176;2022-07-06T15:20:21;2.08;;;1.42;;
8881;SDS011;4477;48.736;9.176;2022-07-06T15:22:48;2.88;;;1.50;;
8881;SDS011;4477;48.736;9.176;2022-07-06T15:25:15;2.58;;;1.42;;